Time;durP1;ratioP1;P1;durP2;ratioP2;P2;SDS_P1;SDS_P2;PMS_P1;PMS_P2;Temp;Humidity;BMP_temperature;BMP_pressure;BME280_temperature;BME280_humidity;BME280_pressure;Samples;Min_cycle;Max_cycle;Signal;HPM_P1;HPM_P2
2023/09/20 00:00:10;;;;;;;4.90;3.47;;;;;;;19.40;100.00;101614.38;2098557;28;20191;-63
2023/09/20 00:01:12;;;;;;;6.53;4.10;;;;;;;19.33;100.00;101606.28;2095044;28;20850;-63
2023/09/20 00:02:12;;;;;;;5.97;4.03;;;;;;;19.37;100.00;101612.53;2099200;28;21371;-63
2023/09/20 00:03:13;;;;;;;7.37;4.33;;;;;;;19.25;100.00;101602.22;2095308;28;20453;-62
2023/09/20 00:04:14;;;;;;;4.23;3.27;;;;;;;19.31;100.00;101620.03;2095180;28;20187;-63
2023/09/20 00:05:15;;;;;;;5.63;3.30;;;;;;;19.28;100.00;101615.34;2095411;28;20706;-63
2023/09/20 00:06:17;;;;;;;5.07;3.20;;;;;;;19.24;100.00;101611.91;2101637;28;20437;-63
2023/09/20 00:07:18;;;;;;;3.80;3.10;;;;;;;19.21;100.00;101623.28;2095027;28;20481;-63
2023/09/20 00:08:18;;;;;;;4.30;3.00;;;;;;;19.20;100.00;101616.88;2094797;28;20512;-63
2023/09/20 00:09:19;;;;;;;7.57;3.77;;;;;;;19.18;100.00;101622.16;2095463;28;20195;-63
2023/09/20 00:10:19;;;;;;;4.13;3.20;;;;;;;18.27;100.00;101482.88;2095254;28;20583;-63
2023/09/20 00:11:20;;;;;;;4.30;3.30;;;;;;;19.08;100.00;101617.03;2094189;28;20178;-63
2023/09/20 00:12:20;;;;;;;4.43;3.23;;;;;;;19.04;100.00;101619.22;2094868;28;20176;-62
2023/09/20 00:13:21;;;;;;;5.33;3.90;;;;;;;19.02;100.00;101610.44;2094794;28;20274;-63
2023/09/20 00:14:22;;;;;;;5.23;3.77;;;;;;;18.98;100.00;101612.66;2095866;28;20561;-63
2023/09/20 00:15:23;;;;;;;4.83;3.83;;;;;;;18.89;100.00;101609.81;2095170;28;20249;-63
2023/09/20 00:16:24;;;;;;;7.27;3.97;;;;;;;18.58;100.00;101570.59;2094848;28;20881;-63
2023/09/20 00:17:24;;;;;;;6.33;3.83;;;;;;;18.85;100.00;101607.16;2095459;28;20449;-63
2023/09/20 00:18:25;;;;;;;5.67;4.33;;;;;;;18.86;100.00;101605.91;2095147;28;20184;-63
2023/09/20 00:19:25;;;;;;;5.27;3.80;;;;;;;18.85;100.00;101601.56;2094677;28;20203;-63
2023/09/20 00:20:26;;;;;;;4.10;3.30;;;;;;;18.87;100.00;101604.66;2094992;28;20180;-63
2023/09/20 00:21:26;;;;;;;4.37;3.77;;;;;;;18.87;100.00;101604.66;2094776;28;20171;-63
2023/09/20 00:22:27;;;;;;;5.93;4.20;;;;;;;18.89;100.00;101601.38;2095153;28;20240;-63
2023/09/20 00:23:28;;;;;;;6.00;3.60;;;;;;;18.43;100.00;101532.38;2095447;28;20218;-63
2023/09/20 00:24:28;;;;;;;5.77;3.90;;;;;;;18.90;100.00;101603.75;2095127;28;20222;-63
2023/09/20 00:25:29;;;;;;;6.50;3.73;;;;;;;18.91;100.00;101604.50;2094486;28;20565;-62
2023/09/20 00:26:29;;;;;;;5.30;4.20;;;;;;;18.92;100.00;101612.47;2094686;28;20584;-63
2023/09/20 00:27:30;;;;;;;5.80;4.30;;;;;;;18.88;100.00;101603.41;2094510;28;20268;-63
2023/09/20 00:28:31;;;;;;;6.40;4.50;;;;;;;18.45;100.00;101539.06;2095195;28;20179;-63
2023/09/20 00:29:31;;;;;;;5.67;4.00;;;;;;;18.93;100.00;101607.66;2095535;28;20179;-63
2023/09/20 00:30:32;;;;;;;5.33;3.73;;;;;;;18.94;100.00;101614.81;2104131;28;20420;-63
2023/09/20 00:31:33;;;;;;;5.30;3.90;;;;;;;18.67;100.00;101575.47;2095237;28;20183;-63
2023/09/20 00:32:33;;;;;;;8.80;4.03;;;;;;;18.95;100.00;101617.16;2095515;28;20237;-63
2023/09/20 00:33:34;;;;;;;5.57;3.73;;;;;;;18.96;100.00;101613.09;2094667;28;20515;-63
2023/09/20 00:34:34;;;;;;;6.33;3.50;;;;;;;18.96;100.00;101621.53;2094448;28;20218;-63
2023/09/20 00:35:39;;;;;;;4.60;3.63;;;;;;;18.24;100.00;101517.47;2094632;28;20270;-63
2023/09/20 00:36:39;;;;;;;5.60;3.50;;;;;;;18.96;100.00;101620.75;2094393;28;20506;-63
2023/09/20 00:37:41;;;;;;;4.73;3.77;;;;;;;18.97;100.00;101623.09;2094611;28;20422;-63
2023/09/20 00:38:42;;;;;;;5.17;3.80;;;;;;;18.94;100.00;101615.59;2094981;28;20277;-63
2023/09/20 00:39:42;;;;;;;8.90;3.93;;;;;;;18.95;100.00;101625.59;2095676;28;20440;-63
2023/09/20 00:40:47;;;;;;;5.43;3.50;;;;;;;18.95;100.00;101630.41;2094960;28;20234;-63
2023/09/20 00:41:48;;;;;;;6.37;3.97;;;;;;;18.77;100.00;101600.28;2095348;28;20279;-63
2023/09/20 00:42:50;;;;;;;4.47;3.70;;;;;;;18.91;100.00;101630.56;2094951;28;20453;-63
2023/09/20 00:43:52;;;;;;;4.40;3.20;;;;;;;18.68;100.00;101591.06;2096787;28;20204;-63
2023/09/20 00:44:52;;;;;;;4.80;3.50;;;;;;;18.90;100.00;101637.44;2094827;28;20880;-63
2023/09/20 00:45:53;;;;;;;5.97;3.80;;;;;;;18.76;100.00;101631.63;2093785;28;20502;-63
2023/09/20 00:46:54;;;;;;;7.93;3.47;;;;;;;18.74;100.00;101637.72;2094094;28;20409;-63
2023/09/20 00:47:57;;;;;;;5.43;3.77;;;;;;;18.38;100.00;101587.06;2094820;28;20249;-62
2023/09/20 00:48:59;;;;;;;5.10;3.33;;;;;;;18.19;100.00;101566.53;2094947;28;20421;-63
2023/09/20 00:50:00;;;;;;;6.43;3.73;;;;;;;18.62;100.00;101644.22;2095618;28;20852;-63
2023/09/20 00:51:00;;;;;;;8.77;3.93;;;;;;;18.65;100.00;101634.88;2094781;28;20517;-63
2023/09/20 00:52:03;;;;;;;4.93;3.70;;;;;;;18.61;100.00;101636.25;2095023;28;20191;-63
2023/09/20 00:53:07;;;;;;;7.13;4.13;;;;;;;18.61;100.00;101637.06;2097340;28;20656;-63
2023/09/20 00:54:08;;;;;;;5.67;4.50;;;;;;;17.81;100.00;101517.59;2098325;28;20538;-63
2023/09/20 00:55:21;;;;;;;5.20;4.00;;;;;;;18.41;100.00;101611.41;2094339;28;20646;-63
2023/09/20 00:56:22;;;;;;;7.03;3.63;;;;;;;18.60;100.00;101640.31;2097568;28;20201;-63
2023/09/20 00:57:25;;;;;;;4.10;3.57;;;;;;;18.39;100.00;101610.31;2097510;28;20443;-63
2023/09/20 00:58:26;;;;;;;5.43;4.00;;;;;;;18.44;100.00;101609.69;2100818;28;20425;-63
2023/09/20 00:59:26;;;;;;;5.10;3.70;;;;;;;18.57;100.00;101633.59;2094971;28;20425;-63
2023/09/20 01:00:27;;;;;;;6.63;3.93;;;;;;;18.57;100.00;101638.44;2095822;28;20183;-63
2023/09/20 01:01:28;;;;;;;5.33;3.40;;;;;;;18.56;100.00;101640.47;2095550;28;20176;-63
2023/09/20 01:02:28;;;;;;;4.50;3.50;;;;;;;18.52;100.00;101633.44;2094802;28;20187;-63
2023/09/20 01:03:32;;;;;;;6.80;4.20;;;;;;;18.49;100.00;101635.16;2094640;28;20196;-63
2023/09/20 01:04:34;;;;;;;5.33;4.23;;;;;;;17.92;100.00;101544.00;2094475;28;20210;-63
2023/09/20 01:05:36;;;;;;;7.23;3.70;;;;;;;18.48;100.00;101632.78;2094307;28;20433;-62
2023/09/20 01:06:40;;;;;;;5.87;4.13;;;;;;;17.80;100.00;101530.06;2094849;28;20442;-63
2023/09/20 01:07:42;;;;;;;4.77;3.67;;;;;;;17.57;100.00;101496.97;2095916;28;20414;-63
2023/09/20 01:08:42;;;;;;;5.40;3.80;;;;;;;17.81;100.00;101536.47;2094437;28;20422;-63
2023/09/20 01:09:45;;;;;;;4.47;3.37;;;;;;;18.43;100.00;101648.19;2094758;28;20417;-63
2023/09/20 01:10:48;;;;;;;6.73;3.90;;;;;;;18.44;100.00;101634.97;2095727;28;20452;-63
2023/09/20 01:11:48;;;;;;;5.10;3.87;;;;;;;17.73;100.00;101533.16;2096221;28;20421;-63
2023/09/20 01:12:51;;;;;;;4.27;3.60;;;;;;;18.43;100.00;101636.22;2094991;28;20938;-63
2023/09/20 01:13:52;;;;;;;5.43;4.10;;;;;;;18.43;100.00;101633.41;2094608;28;20186;-63
2023/09/20 01:16:15;;;;;;;6.53;4.27;;;;;;;18.42;100.00;101627.00;2095255;28;20422;-63
2023/09/20 01:17:15;;;;;;;5.50;4.10;;;;;;;18.41;100.00;101631.06;2094753;28;20934;-63
2023/09/20 01:18:16;;;;;;;5.93;3.90;;;;;;;18.42;100.00;101627.00;2094444;28;20815;-63
2023/09/20 01:19:16;;;;;;;5.10;4.10;;;;;;;18.43;100.00;101628.56;2094345;28;20290;-63
2023/09/20 01:20:19;;;;;;;5.63;4.17;;;;;;;18.44;100.00;101627.34;2094942;28;20674;-63
2023/09/20 01:21:19;;;;;;;5.93;4.07;;;;;;;18.40;100.00;101618.25;2094951;28;20179;-63
2023/09/20 01:22:20;;;;;;;6.23;4.40;;;;;;;18.47;100.00;101628.44;2094665;28;20516;-63
2023/09/20 01:23:20;;;;;;;5.03;4.00;;;;;;;18.33;100.00;101606.53;2103085;28;20233;-63
2023/09/20 01:24:23;;;;;;;5.93;4.50;;;;;;;18.48;100.00;101630.00;2095464;28;20202;-63
2023/09/20 01:25:31;;;;;;;6.27;4.20;;;;;;;18.46;100.00;101630.44;2094367;28;20591;-63
2023/09/20 01:26:33;;;;;;;5.07;4.03;;;;;;;18.45;100.00;101628.09;2099778;28;20448;-63
2023/09/20 01:27:35;;;;;;;5.47;4.17;;;;;;;18.51;100.00;101634.66;2097846;28;20483;-63
2023/09/20 01:28:36;;;;;;;6.10;4.23;;;;;;;18.48;100.00;101630.00;2094026;28;20477;-63
2023/09/20 01:29:38;;;;;;;6.30;4.23;;;;;;;18.50;100.00;101627.50;2093954;28;21095;-63
2023/09/20 01:30:42;;;;;;;8.47;4.27;;;;;;;18.51;100.00;101629.03;2094712;28;20171;-63
2023/09/20 01:31:42;;;;;;;5.90;3.90;;;;;;;18.50;100.00;101627.50;2095007;28;20580;-63
2023/09/20 01:32:44;;;;;;;4.87;4.20;;;;;;;18.50;100.00;101633.09;2094606;28;20429;-63
2023/09/20 01:33:45;;;;;;;5.27;3.77;;;;;;;18.53;100.00;101632.97;2094362;28;20619;-63
2023/09/20 01:34:45;;;;;;;7.50;4.27;;;;;;;18.52;100.00;101625.78;2094531;28;20544;-63
2023/09/20 01:35:47;;;;;;;7.27;4.40;;;;;;;17.57;100.00;101485.75;2094219;28;20194;-63
2023/09/20 01:36:47;;;;;;;4.80;3.73;;;;;;;18.55;100.00;101632.50;2094406;28;20199;-63
2023/09/20 01:37:51;;;;;;;5.50;3.67;;;;;;;18.10;100.00;101562.94;2094353;28;20934;-63
2023/09/20 01:38:51;;;;;;;6.43;4.13;;;;;;;18.58;100.00;101635.16;2094482;28;20559;-63
2023/09/20 01:39:52;;;;;;;6.40;4.10;;;;;;;18.59;100.00;101625.50;2094709;28;20452;-63
2023/09/20 01:40:56;;;;;;;6.20;3.80;;;;;;;18.60;100.00;101634.69;2095009;28;20214;-63
2023/09/20 01:41:56;;;;;;;5.03;3.80;;;;;;;18.51;100.00;101613.00;2095209;28;20190;-63
2023/09/20 01:42:58;;;;;;;5.13;4.30;;;;;;;18.55;100.00;101618.47;2095526;28;20456;-63
2023/09/20 01:43:58;;;;;;;5.23;3.80;;;;;;;18.59;100.00;101616.31;2094637;28;20547;-63
2023/09/20 01:44:59;;;;;;;6.80;4.13;;;;;;;18.60;100.00;101617.84;2094126;28;20504;-63
2023/09/20 01:46:01;;;;;;;5.10;3.83;;;;;;;18.45;100.00;101602.84;2095025;28;20715;-63
2023/09/20 01:47:04;;;;;;;4.83;3.67;;;;;;;18.61;100.00;101617.41;2096157;28;20728;-63
2023/09/20 01:48:08;;;;;;;4.87;3.70;;;;;;;18.61;100.00;101625.81;2094268;28;20453;-63
2023/09/20 01:49:10;;;;;;;5.63;4.23;;;;;;;18.60;100.00;101612.25;2097984;28;20758;-63
2023/09/20 01:50:19;;;;;;;5.33;3.90;;;;;;;18.60;100.00;101615.03;2094599;28;20888;-63
2023/09/20 01:51:20;;;;;;;6.57;4.07;;;;;;;18.59;100.00;101624.72;2099369;28;20427;-63
2023/09/20 01:52:21;;;;;;;6.17;4.10;;;;;;;17.95;100.00;101517.06;2094920;28;20453;-63
2023/09/20 01:53:24;;;;;;;6.70;4.17;;;;;;;18.58;100.00;101620.34;2094701;28;20946;-63
2023/09/20 01:54:28;;;;;;;7.43;3.63;;;;;;;18.27;100.00;101583.13;2095265;28;20608;-63
2023/09/20 01:55:31;;;;;;;6.93;3.77;;;;;;;18.32;100.00;101590.94;2094842;28;20828;-63
2023/09/20 01:56:32;;;;;;;4.93;3.83;;;;;;;18.57;100.00;101625.19;2094565;28;20426;-63
2023/09/20 01:57:32;;;;;;;8.70;4.37;;;;;;;18.57;100.00;101625.19;2094653;28;20437;-63
2023/09/20 01:58:32;;;;;;;6.23;3.83;;;;;;;18.57;100.00;101630.03;2094528;28;20323;-63
2023/09/20 01:59:33;;;;;;;5.20;4.10;;;;;;;18.52;100.00;101620.16;2094409;28;20513;-63
2023/09/20 02:00:38;;;;;;;5.67;4.00;;;;;;;18.51;100.00;101615.81;2094348;28;20261;-63
2023/09/20 02:01:38;;;;;;;6.03;3.90;;;;;;;18.52;100.00;101625.03;2099487;28;20183;-63
2023/09/20 02:02:39;;;;;;;7.23;3.73;;;;;;;18.54;100.00;101623.31;2094383;28;20414;-63
2023/09/20 02:03:40;;;;;;;5.83;3.83;;;;;;;18.56;100.00;101620.81;2095228;28;20655;-63
2023/09/20 02:04:40;;;;;;;5.37;3.63;;;;;;;18.56;100.00;101620.03;2095315;28;20214;-63
2023/09/20 02:05:41;;;;;;;6.47;4.27;;;;;;;18.53;100.00;101623.78;2094319;28;20502;-63
2023/09/20 02:06:41;;;;;;;7.27;3.93;;;;;;;18.55;100.00;101615.66;2093740;28;20264;-63
2023/09/20 02:07:42;;;;;;;8.27;3.97;;;;;;;18.52;100.00;101622.22;2094361;28;20191;-63
2023/09/20 02:08:42;;;;;;;5.43;4.20;;;;;;;18.51;100.00;101615.00;2094455;28;20206;-63
2023/09/20 02:09:43;;;;;;;7.10;3.73;;;;;;;18.51;100.00;101624.22;2094647;28;20184;-63
2023/09/20 02:10:44;;;;;;;6.70;3.70;;;;;;;18.51;100.00;101615.00;2094722;28;20195;-62
2023/09/20 02:11:45;;;;;;;6.20;3.53;;;;;;;18.51;100.00;101621.41;2095514;28;21178;-63
2023/09/20 02:12:46;;;;;;;6.77;3.97;;;;;;;18.09;100.00;101553.72;2095178;28;20414;-63
2023/09/20 02:13:47;;;;;;;5.93;4.03;;;;;;;18.51;100.00;101618.63;2094301;28;20848;-63
2023/09/20 02:14:48;;;;;;;4.30;3.17;;;;;;;18.48;100.00;101618.75;2094157;28;20886;-63
2023/09/20 02:15:48;;;;;;;9.93;3.50;;;;;;;18.44;100.00;101618.13;2094709;28;20274;-63
2023/09/20 02:16:50;;;;;;;8.83;3.60;;;;;;;18.38;100.00;101614.34;2093134;28;20763;-63
2023/09/20 02:17:51;;;;;;;5.03;3.50;;;;;;;18.33;100.00;101612.16;2099153;28;20175;-63
2023/09/20 02:18:52;;;;;;;6.77;3.93;;;;;;;18.29;100.00;101615.84;2094439;28;20472;-63
2023/09/20 02:19:54;;;;;;;3.90;3.23;;;;;;;18.27;100.00;101615.53;2094534;28;20342;-63
2023/09/20 02:20:55;;;;;;;5.70;3.73;;;;;;;18.19;100.00;101605.81;2095323;28;20478;-63
2023/09/20 02:21:56;;;;;;;6.50;4.07;;;;;;;18.19;100.00;101617.03;2093942;28;20867;-63
2023/09/20 02:22:57;;;;;;;7.30;4.60;;;;;;;18.21;100.00;101613.78;2094202;28;20580;-63
2023/09/20 02:23:58;;;;;;;6.10;3.40;;;;;;;17.91;100.00;101572.50;2095397;28;20215;-63
2023/09/20 02:24:58;;;;;;;7.20;4.00;;;;;;;18.17;100.00;101611.13;2094986;28;20192;-63
2023/09/20 02:25:59;;;;;;;6.13;3.60;;;;;;;18.17;100.00;101615.19;2094165;28;20497;-62
2023/09/20 02:27:00;;;;;;;5.50;3.70;;;;;;;17.81;100.00;101562.47;2094177;28;20558;-63
2023/09/20 02:28:01;;;;;;;7.40;3.33;;;;;;;18.08;100.00;101615.91;2094792;28;20187;-63
2023/09/20 02:29:02;;;;;;;8.23;3.70;;;;;;;18.04;100.00;101618.06;2099733;28;20417;-63
2023/09/20 02:30:04;;;;;;;5.20;3.47;;;;;;;18.02;100.00;101621.34;2095049;28;20664;-63
2023/09/20 02:31:05;;;;;;;4.93;3.70;;;;;;;18.01;100.00;101613.38;2095117;28;20483;-63
2023/09/20 02:32:05;;;;;;;8.47;3.40;;;;;;;17.99;100.00;101611.03;2096806;28;20942;-63
2023/09/20 02:33:07;;;;;;;5.70;3.90;;;;;;;17.98;100.00;101623.50;2095882;28;20813;-65
2023/09/20 02:34:08;;;;;;;5.13;4.00;;;;;;;17.98;100.00;101610.72;2095329;28;20223;-65
2023/09/20 02:35:09;;;;;;;5.83;4.20;;;;;;;17.96;100.00;101616.78;2094581;28;20755;-65
2023/09/20 02:36:11;;;;;;;6.53;3.60;;;;;;;17.93;100.00;101623.31;2095704;28;20223;-65
2023/09/20 02:37:12;;;;;;;6.80;3.40;;;;;;;17.93;100.00;101617.72;2095446;28;20458;-65
2023/09/20 02:38:12;;;;;;;6.20;4.10;;;;;;;17.92;100.00;101622.53;2096569;28;20437;-65
2023/09/20 02:39:15;;;;;;;7.27;4.10;;;;;;;17.88;100.00;101617.50;2095864;28;20199;-65
2023/09/20 02:40:19;;;;;;;5.53;4.07;;;;;;;17.87;100.00;101619.56;2096319;28;20213;-65
2023/09/20 02:41:19;;;;;;;5.57;4.30;;;;;;;17.87;100.00;101625.16;2095747;28;20499;-65
2023/09/20 02:42:22;;;;;;;4.20;3.23;;;;;;;17.87;100.00;101632.78;2096482;28;20519;-65
2023/09/20 02:43:23;;;;;;;5.83;3.80;;;;;;;17.72;100.00;101607.31;2098212;28;20616;-65
2023/09/20 02:44:24;;;;;;;4.87;3.50;;;;;;;17.83;100.00;101630.88;2096255;28;20454;-65
2023/09/20 02:45:29;;;;;;;8.17;4.80;;;;;;;17.80;100.00;101633.06;2099814;28;20272;-65
2023/09/20 02:46:31;;;;;;;6.20;3.97;;;;;;;17.78;100.00;101625.84;2101376;28;20327;-65
2023/09/20 02:47:31;;;;;;;4.53;3.20;;;;;;;17.79;100.00;101629.44;2095842;28;20513;-65
2023/09/20 02:48:34;;;;;;;5.43;3.70;;;;;;;17.71;100.00;101622.53;2099955;28;20437;-65
2023/09/20 02:49:34;;;;;;;8.60;4.23;;;;;;;17.28;100.00;101563.66;2096419;28;20517;-65
2023/09/20 02:50:35;;;;;;;7.27;3.80;;;;;;;17.19;100.00;101558.78;2096348;28;20811;-65
2023/09/20 02:51:36;;;;;;;5.17;4.00;;;;;;;17.72;100.00;101635.34;2095877;28;20199;-65
2023/09/20 02:52:37;;;;;;;4.90;3.70;;;;;;;17.74;100.00;101644.06;2096052;28;20198;-65
2023/09/20 02:53:37;;;;;;;6.07;4.07;;;;;;;17.73;100.00;101639.69;2095785;28;20233;-65
2023/09/20 02:54:38;;;;;;;4.93;4.07;;;;;;;17.75;100.00;101628.03;2095436;28;20443;-62
2023/09/20 02:55:39;;;;;;;4.87;4.00;;;;;;;17.78;100.00;101630.69;2095173;28;20191;-62
2023/09/20 02:56:39;;;;;;;7.90;4.03;;;;;;;17.73;100.00;101616.47;2095331;28;20203;-62
2023/09/20 02:57:41;;;;;;;9.80;4.13;;;;;;;17.41;100.00;101566.44;2096215;28;20187;-63
2023/09/20 02:58:42;;;;;;;5.27;4.03;;;;;;;17.81;100.00;101629.00;2095811;28;20199;-63
2023/09/20 02:59:42;;;;;;;5.90;4.00;;;;;;;16.94;100.00;101497.28;2095308;28;20477;-62
2023/09/20 03:00:47;;;;;;;8.03;3.90;;;;;;;17.78;100.00;101630.69;2094875;28;20198;-62
2023/09/20 03:01:49;;;;;;;4.70;3.97;;;;;;;17.77;100.00;101629.16;2096554;28;20721;-62
2023/09/20 03:02:52;;;;;;;7.10;4.70;;;;;;;17.81;100.00;101626.97;2099173;28;20527;-62
2023/09/20 03:03:53;;;;;;;4.90;4.10;;;;;;;17.81;100.00;101629.00;2095549;28;20530;-62
2023/09/20 03:04:54;;;;;;;8.53;4.40;;;;;;;17.75;100.00;101625.22;2095440;28;20421;-62
2023/09/20 03:05:54;;;;;;;8.37;4.60;;;;;;;17.74;100.00;101627.25;2095448;28;20535;-62
2023/09/20 03:06:55;;;;;;;4.73;3.63;;;;;;;17.77;100.00;101624.28;2096211;28;20546;-63
2023/09/20 03:07:56;;;;;;;4.97;3.97;;;;;;;17.81;100.00;101626.19;2095815;28;20187;-62
2023/09/20 03:08:57;;;;;;;6.57;4.70;;;;;;;17.81;100.00;101626.97;2095741;28;20179;-63
2023/09/20 03:09:59;;;;;;;7.80;4.13;;;;;;;17.83;100.00;101627.31;2094968;28;20534;-63
2023/09/20 03:10:59;;;;;;;6.67;4.17;;;;;;;17.83;100.00;101627.31;2095604;28;21108;-62
2023/09/20 03:12:00;;;;;;;7.67;4.30;;;;;;;17.81;100.00;101620.59;2095751;28;20872;-62
2023/09/20 03:13:03;;;;;;;5.43;3.90;;;;;;;17.82;100.00;101617.34;2095149;28;20211;-62
2023/09/20 03:14:08;;;;;;;7.57;4.00;;;;;;;17.82;100.00;101620.13;2095459;28;20193;-62
2023/09/20 03:15:17;;;;;;;8.53;4.80;;;;;;;17.84;100.00;101612.03;2095171;28;20713;-62
2023/09/20 03:16:18;;;;;;;5.30;3.93;;;;;;;17.85;100.00;101610.03;2095409;28;20919;-62
2023/09/20 03:17:19;;;;;;;5.40;4.10;;;;;;;17.87;100.00;101613.94;2096356;28;20482;-63
2023/09/20 03:18:22;;;;;;;8.37;4.47;;;;;;;17.88;100.00;101613.47;2095887;28;20442;-62
2023/09/20 03:19:24;;;;;;;6.77;4.83;;;;;;;17.26;100.00;101524.91;2095219;28;20195;-62
2023/09/20 03:20:25;;;;;;;4.93;4.17;;;;;;;17.65;100.00;101581.56;2096767;28;20472;-63
2023/09/20 03:21:26;;;;;;;5.73;4.00;;;;;;;17.92;100.00;101611.31;2095692;28;20824;-62
2023/09/20 03:22:28;;;;;;;6.33;4.63;;;;;;;17.93;100.00;101612.88;2095753;28;20445;-62
2023/09/20 03:23:28;;;;;;;5.93;4.03;;;;;;;17.96;100.00;101613.19;2095554;28;20261;-62
2023/09/20 03:24:29;;;;;;;6.07;4.17;;;;;;;17.97;100.00;101614.75;2095540;28;20429;-62
2023/09/20 03:25:36;;;;;;;7.13;4.40;;;;;;;17.96;100.00;101607.59;2095051;28;20173;-62
2023/09/20 03:26:36;;;;;;;6.47;4.47;;;;;;;17.95;100.00;101601.19;2095360;28;20422;-62
2023/09/20 03:27:40;;;;;;;7.63;4.30;;;;;;;17.98;100.00;101613.50;2095934;28;20430;-62
2023/09/20 03:28:43;;;;;;;7.27;4.70;;;;;;;17.98;100.00;101609.47;2095063;28;20200;-63
2023/09/20 03:29:45;;;;;;;7.50;4.30;;;;;;;17.95;100.00;101604.00;2095418;28;20449;-62
2023/09/20 03:30:45;;;;;;;6.10;4.03;;;;;;;17.99;100.00;101611.03;2095694;28;21016;-63
2023/09/20 03:31:48;;;;;;;5.33;3.87;;;;;;;18.02;100.00;101608.56;2096567;28;20815;-62
2023/09/20 03:32:49;;;;;;;5.23;4.03;;;;;;;18.04;100.00;101612.47;2095528;28;20184;-62
2023/09/20 03:33:50;;;;;;;7.17;4.33;;;;;;;18.05;100.00;101608.41;2095257;28;20603;-63
2023/09/20 03:34:50;;;;;;;5.30;3.87;;;;;;;18.07;100.00;101605.91;2095250;28;20523;-63
2023/09/20 03:35:52;;;;;;;5.10;4.10;;;;;;;17.75;100.00;101558.72;2094892;28;20197;-63
2023/09/20 03:36:57;;;;;;;6.37;4.63;;;;;;;18.09;100.00;101606.25;2096001;28;20186;-63
2023/09/20 03:37:57;;;;;;;7.27;4.20;;;;;;;18.09;100.00;101601.41;2096531;28;20938;-63
2023/09/20 03:38:59;;;;;;;6.93;4.67;;;;;;;18.12;100.00;101607.38;2095234;28;20864;-62
2023/09/20 03:39:59;;;;;;;6.53;4.30;;;;;;;18.11;100.00;101609.38;2095394;28;20189;-62
2023/09/20 03:41:00;;;;;;;5.13;4.00;;;;;;;18.12;100.00;101607.38;2095597;28;20449;-63
2023/09/20 03:42:00;;;;;;;6.87;3.97;;;;;;;18.07;100.00;101597.50;2096490;28;20499;-63
2023/09/20 03:43:07;;;;;;;6.77;4.70;;;;;;;18.09;100.00;101606.25;2095438;28;20199;-62
2023/09/20 03:44:07;;;;;;;6.97;4.10;;;;;;;18.08;100.00;101598.28;2100287;28;20207;-62
2023/09/20 03:45:10;;;;;;;6.13;3.97;;;;;;;18.09;100.00;101615.44;2095097;28;21004;-63
2023/09/20 03:46:10;;;;;;;7.30;4.67;;;;;;;18.09;100.00;101603.44;2094841;28;20238;-63
2023/09/20 03:47:11;;;;;;;5.93;4.10;;;;;;;18.09;100.00;101598.59;2095678;28;20430;-62
2023/09/20 03:48:11;;;;;;;4.83;3.77;;;;;;;18.10;100.00;101596.59;2095685;28;20190;-63
2023/09/20 03:49:13;;;;;;;6.73;4.40;;;;;;;17.77;100.00;101551.41;2094932;28;20585;-62
2023/09/20 03:50:13;;;;;;;5.60;4.00;;;;;;;17.69;100.00;101552.13;2100260;28;20893;-63
2023/09/20 03:51:17;;;;;;;5.83;4.40;;;;;;;18.03;100.00;101589.22;2099236;28;20829;-62
2023/09/20 03:52:18;;;;;;;6.03;4.47;;;;;;;18.03;100.00;101586.44;2099260;28;20240;-62
2023/09/20 03:53:18;;;;;;;5.17;4.03;;;;;;;18.07;100.00;101597.50;2101056;28;20468;-62
2023/09/20 03:54:19;;;;;;;5.83;4.20;;;;;;;18.08;100.00;101595.50;2095339;28;20429;-67
2023/09/20 03:55:19;;;;;;;2.90;2.30;;;;;;;18.56;100.00;101594.75;2099270;28;20196;-60
2023/09/20 03:56:21;;;;;;;3.17;2.30;;;;;;;19.45;100.00;101598.94;2103464;28;20262;-58
2023/09/20 03:57:24;;;;;;;3.60;2.27;;;;;;;20.05;100.00;101600.53;2097671;28;20696;-58
2023/09/20 03:58:25;;;;;;;3.13;1.80;;;;;;;20.30;100.00;101594.53;2098451;28;20446;-60
2023/09/20 03:59:26;;;;;;;3.10;1.80;;;;;;;20.44;100.00;101578.97;2097646;28;20445;-71
2023/09/20 04:00:31;;;;;;;3.03;2.30;;;;;;;20.78;100.00;101589.72;2094672;28;20525;-59
2023/09/20 04:01:35;;;;;;;3.07;2.27;;;;;;;20.97;100.00;101582.72;2098391;28;20195;-59
2023/09/20 04:02:35;;;;;;;3.73;2.40;;;;;;;21.23;100.00;101589.41;2100869;28;20441;-59
2023/09/20 04:03:36;;;;;;;4.50;2.30;;;;;;;21.33;100.00;101582.44;2099835;28;20441;-59
2023/09/20 04:04:36;;;;;;;4.50;2.40;;;;;;;21.49;100.00;101593.25;2100655;28;20218;-60
2023/09/20 04:05:38;;;;;;;4.40;2.53;;;;;;;21.07;100.00;101511.72;2104904;28;20199;-60
2023/09/20 04:06:39;;;;;;;10.17;3.20;;;;;;;21.60;100.00;101597.03;2093724;28;20645;-65
2023/09/20 04:07:44;;;;;;;4.00;2.43;;;;;;;21.77;100.00;101598.16;2102313;28;20882;-59
2023/09/20 04:08:44;;;;;;;4.43;2.60;;;;;;;22.04;100.00;101597.06;2098606;28;20252;-59
2023/09/20 04:09:45;;;;;;;5.57;2.90;;;;;;;21.81;100.00;101541.53;2096851;28;20236;-59
2023/09/20 04:10:46;;;;;;;6.37;2.67;;;;;;;22.32;100.00;101589.84;2095356;28;20218;-58
2023/09/20 04:11:47;;;;;;;5.83;2.90;;;;;;;22.35;100.00;101595.28;2097181;28;20218;-57
2023/09/20 04:12:48;;;;;;;7.73;3.17;;;;;;;21.57;100.00;101473.91;2096050;28;20188;-60
2023/09/20 04:13:50;;;;;;;5.97;2.60;;;;;;;22.51;100.00;101594.78;2096492;28;20274;-60
2023/09/20 04:14:54;;;;;;;4.17;3.03;;;;;;;22.56;100.00;101601.78;2094644;28;20445;-61
2023/09/20 04:15:55;;;;;;;5.47;2.90;;;;;;;22.44;100.00;101585.91;2094433;28;20199;-61
2023/09/20 04:16:55;;;;;;;6.70;3.10;;;;;;;22.55;100.00;101588.91;2088317;28;20226;-64
2023/09/20 04:17:55;;;;;;;5.70;2.70;;;;;;;22.42;100.00;101566.63;2098694;28;20247;-61
2023/09/20 04:18:56;;;;;;;4.30;3.07;;;;;;;22.68;100.00;101600.66;2095752;28;20211;-57
2023/09/20 04:19:56;;;;;;;5.67;2.80;;;;;;;22.73;100.00;101595.06;2094744;28;20195;-60
2023/09/20 04:20:57;;;;;;;5.63;3.30;;;;;;;22.72;100.00;101584.28;2094026;28;20508;-61
2023/09/20 04:21:58;;;;;;;3.63;2.50;;;;;;;22.41;100.00;101541.72;2094085;28;20759;-64
2023/09/20 04:22:58;;;;;;;6.83;3.03;;;;;;;22.78;100.00;101588.72;2095051;28;20569;-60
2023/09/20 04:23:59;;;;;;;6.60;3.50;;;;;;;22.79;100.00;101589.50;2100313;28;20198;-60
2023/09/20 04:25:00;;;;;;;5.63;3.50;;;;;;;22.40;100.00;101542.97;2101340;28;20203;-60
2023/09/20 04:26:00;;;;;;;4.30;3.00;;;;;;;22.62;100.00;101591.34;2099284;28;20643;-60
2023/09/20 04:27:03;;;;;;;5.57;3.63;;;;;;;22.58;100.00;101597.22;2098377;28;20283;-60
2023/09/20 04:28:04;;;;;;;8.03;2.67;;;;;;;22.56;100.00;101596.91;2101045;28;20764;-59
2023/09/20 04:29:04;;;;;;;5.40;2.97;;;;;;;22.59;100.00;101597.97;2095440;28;20935;-61
2023/09/20 04:30:09;;;;;;;3.90;2.70;;;;;;;22.66;100.00;101606.81;2096094;28;20187;-62
2023/09/20 04:31:09;;;;;;;3.60;2.40;;;;;;;22.64;100.00;101606.53;2095665;28;20805;-61
2023/09/20 04:32:10;;;;;;;3.53;2.33;;;;;;;22.68;100.00;101606.31;2095334;28;20708;-61
2023/09/20 04:33:10;;;;;;;6.33;2.87;;;;;;;22.68;100.00;101609.16;2094007;28;20343;-62
2023/09/20 04:34:11;;;;;;;5.40;3.10;;;;;;;22.70;100.00;101607.38;2094095;28;20214;-61
2023/09/20 04:35:12;;;;;;;5.20;2.63;;;;;;;22.80;100.00;101608.03;2097356;28;20577;-61
2023/09/20 04:36:13;;;;;;;6.77;3.20;;;;;;;22.83;100.00;101604.22;2093707;28;20199;-62
2023/09/20 04:37:13;;;;;;;5.67;3.20;;;;;;;22.68;100.00;101603.50;2094720;28;20274;-62
2023/09/20 04:38:15;;;;;;;5.83;2.90;;;;;;;22.59;100.00;101610.06;2093319;28;20278;-62
2023/09/20 04:39:15;;;;;;;6.63;3.13;;;;;;;22.66;100.00;101614.50;2094504;28;20631;-62
2023/09/20 04:40:16;;;;;;;4.47;3.00;;;;;;;22.73;100.00;101620.50;2094487;28;20248;-61
2023/09/20 04:41:17;;;;;;;5.63;2.80;;;;;;;22.76;100.00;101611.06;2092801;28;20183;-62
2023/09/20 04:42:17;;;;;;;3.23;2.20;;;;;;;22.84;100.00;101611.41;2091017;28;20300;-62
2023/09/20 04:43:18;;;;;;;4.87;2.80;;;;;;;22.86;100.00;101608.88;2095900;28;20191;-62